Time;durP1;ratioP1;P1;durP2;ratioP2;P2;SDS_P1;SDS_P2;PMS_P1;PMS_P2;Temp;Humidity;BMP_temperature;BMP_pressure;BME280_temperature;BME280_humidity;BME280_pressure;Samples;Min_cycle;Max_cycle;Signal;HPM_P1;HPM_P2
2022/11/14 00:02:05;;;;;;;0.77;0.70;;;;;;;;;;5016150;28;20073;-78
2022/11/14 00:04:49;;;;;;;0.73;0.70;;;;;;;;;;5002749;28;20049;-77
2022/11/14 00:07:34;;;;;;;0.70;0.70;;;;;;;;;;5003061;28;20065;-79
2022/11/14 00:10:18;;;;;;;1.60;0.60;;;;;;;;;;5017935;28;20435;-79
2022/11/14 00:13:02;;;;;;;1.23;0.70;;;;;;;;;;5003569;28;20367;-80
2022/11/14 00:15:53;;;;;;;1.33;0.70;;;;;;;;;;5003989;28;20037;-77
2022/11/14 00:18:37;;;;;;;0.82;0.68;;;;;;;;;;5011824;28;20034;-79
2022/11/14 00:21:21;;;;;;;0.60;0.60;;;;;;;;;;4994954;28;20594;-77
2022/11/14 00:24:05;;;;;;;0.60;0.60;;;;;;;;;;4993074;28;20128;-79
2022/11/14 00:26:49;;;;;;;1.43;1.00;;;;;;;;;;4996696;28;20038;-77
2022/11/14 00:29:33;;;;;;;1.03;0.80;;;;;;;;;;4994020;28;20040;-79
2022/11/14 00:32:18;;;;;;;3.67;0.80;;;;;;;;;;4992908;28;20045;-79
2022/11/14 00:35:02;;;;;;;0.77;0.77;;;;;;;;;;4991992;28;20083;-80
2022/11/14 00:37:46;;;;;;;2.23;0.70;;;;;;;;;;5003742;28;20491;-83
2022/11/14 00:40:30;;;;;;;1.50;0.80;;;;;;;;;;4990191;28;20100;-80
2022/11/14 00:43:14;;;;;;;0.93;0.77;;;;;;;;;;4997996;28;20029;-80
2022/11/14 00:45:59;;;;;;;1.70;0.80;;;;;;;;;;5015350;28;20092;-80
2022/11/14 00:48:43;;;;;;;1.03;0.70;;;;;;;;;;5001453;28;20061;-79
2022/11/14 00:51:27;;;;;;;1.03;0.83;;;;;;;;;;5020968;28;20064;-78
2022/11/14 00:54:11;;;;;;;0.80;0.80;;;;;;;;;;5021090;28;20045;-77
2022/11/14 00:56:55;;;;;;;0.93;0.93;;;;;;;;;;5020671;28;20029;-78
2022/11/14 00:59:39;;;;;;;1.03;0.83;;;;;;;;;;5020972;28;20391;-78
2022/11/14 01:02:23;;;;;;;0.70;0.70;;;;;;;;;;5020857;28;20044;-77
2022/11/14 01:05:07;;;;;;;2.30;0.90;;;;;;;;;;5020847;28;20037;-78
2022/11/14 01:07:51;;;;;;;0.83;0.73;;;;;;;;;;5020873;28;20044;-77
2022/11/14 01:10:37;;;;;;;0.70;0.70;;;;;;;;;;5020675;28;20037;-77
2022/11/14 01:13:22;;;;;;;1.00;0.90;;;;;;;;;;5020221;28;20463;-75
2022/11/14 01:16:06;;;;;;;1.47;0.97;;;;;;;;;;5020386;28;20047;-76
2022/11/14 01:18:51;;;;;;;1.60;0.87;;;;;;;;;;5020836;28;20037;-75
2022/11/14 01:21:35;;;;;;;0.80;0.80;;;;;;;;;;5019910;28;20144;-75
2022/11/14 01:24:20;;;;;;;0.70;0.70;;;;;;;;;;5018250;28;20087;-76
2022/11/14 01:27:04;;;;;;;0.90;0.77;;;;;;;;;;5016552;28;20229;-76
2022/11/14 01:29:48;;;;;;;1.37;0.93;;;;;;;;;;5017199;28;20414;-76
2022/11/14 01:32:32;;;;;;;0.87;0.80;;;;;;;;;;5017341;28;20040;-77
2022/11/14 01:35:16;;;;;;;0.90;0.77;;;;;;;;;;5017572;28;20386;-76
2022/11/14 01:38:00;;;;;;;2.20;0.77;;;;;;;;;;5017280;28;20072;-77
2022/11/14 01:40:45;;;;;;;0.80;0.80;;;;;;;;;;5019683;28;20087;-76
2022/11/14 01:43:31;;;;;;;2.03;0.60;;;;;;;;;;5020465;28;20190;-76
2022/11/14 01:46:30;;;;;;;1.47;0.90;;;;;;;;;;5023765;28;20071;-76
2022/11/14 01:49:17;;;;;;;1.30;0.70;;;;;;;;;;5024091;28;20036;-77
2022/11/14 01:52:03;;;;;;;0.87;0.80;;;;;;;;;;5024208;28;20032;-77
2022/11/14 01:54:50;;;;;;;0.60;0.60;;;;;;;;;;5037865;28;20041;-77
2022/11/14 01:57:37;;;;;;;0.93;0.60;;;;;;;;;;5037907;28;20029;-76
2022/11/14 02:00:23;;;;;;;0.53;0.53;;;;;;;;;;5023961;28;20560;-76
2022/11/14 02:03:08;;;;;;;0.93;0.70;;;;;;;;;;5037598;28;20075;-77
2022/11/14 02:05:54;;;;;;;0.50;0.50;;;;;;;;;;5024212;28;20039;-76
2022/11/14 02:08:41;;;;;;;1.33;0.70;;;;;;;;;;5023768;28;20142;-76
2022/11/14 02:11:31;;;;;;;0.50;0.50;;;;;;;;;;5023893;28;20036;-77
2022/11/14 02:14:16;;;;;;;1.03;0.70;;;;;;;;;;5023371;28;20037;-78
2022/11/14 02:17:03;;;;;;;0.60;0.60;;;;;;;;;;5022841;28;20123;-80
2022/11/14 02:19:49;;;;;;;0.60;0.60;;;;;;;;;;5022025;28;20531;-77
2022/11/14 02:22:33;;;;;;;1.07;0.60;;;;;;;;;;5022622;28;20064;-77
2022/11/14 02:25:18;;;;;;;0.67;0.67;;;;;;;;;;5022382;28;20052;-78
2022/11/14 02:28:06;;;;;;;1.07;0.50;;;;;;;;;;5022082;28;20482;-78
2022/11/14 02:30:50;;;;;;;0.67;0.60;;;;;;;;;;5022519;28;20037;-77
2022/11/14 02:33:34;;;;;;;2.37;0.70;;;;;;;;;;5023689;28;20075;-78
2022/11/14 02:36:18;;;;;;;2.67;0.70;;;;;;;;;;5037483;28;20555;-78
2022/11/14 02:39:02;;;;;;;0.50;0.50;;;;;;;;;;5023565;28;20384;-78
2022/11/14 02:41:46;;;;;;;0.93;0.70;;;;;;;;;;5023366;28;20383;-78
2022/11/14 02:44:30;;;;;;;0.70;0.70;;;;;;;;;;5023344;28;20075;-77
2022/11/14 02:47:14;;;;;;;0.60;0.60;;;;;;;;;;5023161;28;20040;-77
2022/11/14 02:49:58;;;;;;;3.63;1.10;;;;;;;;;;5021163;28;20039;-77
2022/11/14 02:52:42;;;;;;;2.53;0.80;;;;;;;;;;5022661;28;20341;-79
2022/11/14 02:55:29;;;;;;;0.70;0.70;;;;;;;;;;5022650;28;20482;-78
2022/11/14 02:58:14;;;;;;;4.93;0.80;;;;;;;;;;5036760;28;20493;-78
2022/11/14 03:00:59;;;;;;;1.83;0.83;;;;;;;;;;5036621;28;20160;-73
2022/11/14 03:03:43;;;;;;;2.50;1.03;;;;;;;;;;5039075;28;20033;-69
2022/11/14 03:06:27;;;;;;;3.00;0.80;;;;;;;;;;5023143;28;20033;-68
2022/11/14 03:09:11;;;;;;;4.47;1.23;;;;;;;;;;5022165;28;20033;-68
2022/11/14 03:11:55;;;;;;;1.20;0.80;;;;;;;;;;5022753;28;20029;-69
2022/11/14 03:14:39;;;;;;;1.43;1.00;;;;;;;;;;5022409;28;20040;-68
2022/11/14 03:17:23;;;;;;;4.10;1.00;;;;;;;;;;5022425;28;20056;-68
2022/11/14 03:20:08;;;;;;;3.73;0.80;;;;;;;;;;5022370;28;20048;-68
2022/11/14 03:22:52;;;;;;;1.80;0.80;;;;;;;;;;5033093;28;20051;-68
2022/11/14 03:25:36;;;;;;;4.13;1.00;;;;;;;;;;5019281;28;20098;-67
2022/11/14 03:28:20;;;;;;;1.67;0.80;;;;;;;;;;5020174;28;20079;-68
2022/11/14 03:31:05;;;;;;;2.80;1.00;;;;;;;;;;5022337;28;20467;-68
2022/11/14 03:33:49;;;;;;;2.20;0.80;;;;;;;;;;5022094;28;20132;-68
2022/11/14 03:36:33;;;;;;;3.20;1.00;;;;;;;;;;5021834;28;20028;-68
2022/11/14 03:39:18;;;;;;;2.53;1.00;;;;;;;;;;5021989;28;20033;-69
2022/11/14 03:42:03;;;;;;;2.40;0.90;;;;;;;;;;5022017;28;20037;-66
2022/11/14 03:44:46;;;;;;;1.83;1.00;;;;;;;;;;5021987;28;20037;-67
2022/11/14 03:47:31;;;;;;;1.20;0.90;;;;;;;;;;5022246;28;20553;-67
2022/11/14 03:50:15;;;;;;;0.97;0.70;;;;;;;;;;5035791;28;20033;-68
2022/11/14 03:52:59;;;;;;;1.57;0.93;;;;;;;;;;5022052;28;20395;-68
2022/11/14 03:55:43;;;;;;;2.07;1.40;;;;;;;;;;5021685;28;20158;-67
2022/11/14 03:58:27;;;;;;;1.23;1.00;;;;;;;;;;5021682;28;20106;-68
2022/11/14 04:01:11;;;;;;;1.63;0.90;;;;;;;;;;5021457;28;20067;-68
2022/11/14 04:03:55;;;;;;;2.67;0.90;;;;;;;;;;5021701;28;20079;-67
2022/11/14 04:06:39;;;;;;;3.43;0.80;;;;;;;;;;5021024;28;20044;-70
2022/11/14 04:09:23;;;;;;;4.37;1.10;;;;;;;;;;5021457;28;20382;-72
2022/11/14 04:12:07;;;;;;;3.67;0.90;;;;;;;;;;5021446;28;20032;-74
2022/11/14 04:14:51;;;;;;;1.27;0.83;;;;;;;;;;5021153;28;20363;-75
2022/11/14 04:17:35;;;;;;;2.00;1.10;;;;;;;;;;5035079;28;20049;-72
2022/11/14 04:20:19;;;;;;;1.03;0.77;;;;;;;;;;5021045;28;20036;-72
2022/11/14 04:23:03;;;;;;;1.73;0.83;;;;;;;;;;5021187;28;20032;-73
2022/11/14 04:25:47;;;;;;;5.40;0.90;;;;;;;;;;5007306;28;20391;-72
2022/11/14 04:28:31;;;;;;;4.63;1.20;;;;;;;;;;5021462;28;20030;-71
2022/11/14 04:31:15;;;;;;;2.50;0.90;;;;;;;;;;5021098;28;20091;-73
2022/11/14 04:33:59;;;;;;;4.63;1.00;;;;;;;;;;5021328;28;20047;-72
2022/11/14 04:36:43;;;;;;;3.27;1.10;;;;;;;;;;5020949;28;20065;-68
2022/11/14 04:39:27;;;;;;;4.00;1.10;;;;;;;;;;5020909;28;20474;-70
2022/11/14 04:42:13;;;;;;;3.10;1.03;;;;;;;;;;5021040;28;20032;-70
2022/11/14 04:44:58;;;;;;;3.30;1.10;;;;;;;;;;5020772;28;20128;-72
2022/11/14 04:47:42;;;;;;;1.87;1.00;;;;;;;;;;5020725;28;20044;-70
2022/11/14 04:50:26;;;;;;;4.33;1.03;;;;;;;;;;5020676;28;20075;-71
2022/11/14 04:53:10;;;;;;;1.43;1.00;;;;;;;;;;5020298;28;20120;-69
2022/11/14 04:55:55;;;;;;;1.20;0.90;;;;;;;;;;5034388;28;20383;-67
2022/11/14 04:58:39;;;;;;;4.40;1.20;;;;;;;;;;5020431;28;20037;-67
2022/11/14 05:01:23;;;;;;;3.50;1.27;;;;;;;;;;4998390;28;20063;-68
2022/11/14 05:04:07;;;;;;;5.57;1.20;;;;;;;;;;5013260;28;20598;-68
2022/11/14 05:06:51;;;;;;;2.93;1.10;;;;;;;;;;4990778;28;20029;-66
2022/11/14 05:09:35;;;;;;;7.33;1.80;;;;;;;;;;5006174;28;20029;-69
2022/11/14 05:12:19;;;;;;;5.87;1.40;;;;;;;;;;4986367;28;20033;-67
2022/11/14 05:15:04;;;;;;;1.80;1.10;;;;;;;;;;4987736;28;20045;-68
2022/11/14 05:17:48;;;;;;;3.63;1.27;;;;;;;;;;4987573;28;20056;-67
2022/11/14 05:20:32;;;;;;;6.33;1.53;;;;;;;;;;4987238;28;20053;-67
2022/11/14 05:23:20;;;;;;;1.97;1.20;;;;;;;;;;4984706;28;20058;-68
2022/11/14 05:26:06;;;;;;;1.83;1.47;;;;;;;;;;4984822;28;20034;-67
2022/11/14 05:28:50;;;;;;;1.60;1.10;;;;;;;;;;5003280;28;20033;-68
2022/11/14 05:31:34;;;;;;;4.70;1.20;;;;;;;;;;4990035;28;20040;-67
2022/11/14 05:34:18;;;;;;;4.10;1.80;;;;;;;;;;4987892;28;20030;-67
2022/11/14 05:37:02;;;;;;;2.47;1.10;;;;;;;;;;4988509;28;20789;-67
2022/11/14 05:39:47;;;;;;;3.07;1.13;;;;;;;;;;4986247;28;20125;-67
2022/11/14 05:42:31;;;;;;;2.07;1.43;;;;;;;;;;5000977;28;20041;-70
2022/11/14 05:45:15;;;;;;;2.90;1.30;;;;;;;;;;5016091;28;20033;-67
2022/11/14 05:47:59;;;;;;;3.67;1.10;;;;;;;;;;4988233;28;20046;-67
2022/11/14 05:50:43;;;;;;;4.27;1.37;;;;;;;;;;4988594;28;20069;-66
2022/11/14 05:53:28;;;;;;;2.93;1.20;;;;;;;;;;4988501;28;20038;-67
2022/11/14 05:56:12;;;;;;;5.10;1.20;;;;;;;;;;4988633;28;20022;-67
2022/11/14 05:58:56;;;;;;;3.07;1.17;;;;;;;;;;4989743;28;20044;-67
2022/11/14 06:01:40;;;;;;;5.13;1.33;;;;;;;;;;4996300;28;20041;-67
2022/11/14 06:04:24;;;;;;;3.33;1.30;;;;;;;;;;4988446;28;20463;-67
2022/11/14 06:07:08;;;;;;;3.53;1.20;;;;;;;;;;4989257;28;20042;-68
2022/11/14 06:09:53;;;;;;;4.77;1.20;;;;;;;;;;4989209;28;20032;-67
2022/11/14 06:12:36;;;;;;;5.57;1.37;;;;;;;;;;4985711;28;20511;-67
2022/11/14 06:15:23;;;;;;;4.30;1.23;;;;;;;;;;4978789;28;20045;-66
2022/11/14 06:18:07;;;;;;;5.93;1.20;;;;;;;;;;4978891;28;20391;-69
2022/11/14 06:20:51;;;;;;;15.50;1.67;;;;;;;;;;4978897;28;20438;-68
2022/11/14 06:23:35;;;;;;;5.93;1.30;;;;;;;;;;4978922;28;20121;-68
2022/11/14 06:26:23;;;;;;;6.67;1.30;;;;;;;;;;4978703;28;20119;-67
2022/11/14 06:29:08;;;;;;;4.00;1.40;;;;;;;;;;4981411;28;20041;-67
2022/11/14 06:31:52;;;;;;;5.23;1.30;;;;;;;;;;5010091;28;20033;-67
2022/11/14 06:34:36;;;;;;;3.23;1.40;;;;;;;;;;4987515;28;20033;-67
2022/11/14 06:37:20;;;;;;;5.60;1.70;;;;;;;;;;4992320;28;20064;-67
2022/11/14 06:40:05;;;;;;;4.70;1.63;;;;;;;;;;4995583;28;20033;-67
2022/11/14 06:42:49;;;;;;;6.47;1.40;;;;;;;;;;5001763;28;20033;-69
2022/11/14 06:45:33;;;;;;;7.40;1.20;;;;;;;;;;5001857;28;20033;-68
2022/11/14 06:48:17;;;;;;;2.72;1.15;;;;;;;;;;5001460;28;20076;-69
2022/11/14 06:51:02;;;;;;;5.82;1.35;;;;;;;;;;4999632;28;20123;-70
2022/11/14 06:53:46;;;;;;;6.72;1.27;;;;;;;;;;5016151;28;20037;-69
2022/11/14 06:56:30;;;;;;;6.65;1.23;;;;;;;;;;5005226;28;20029;-69
2022/11/14 06:59:14;;;;;;;5.03;1.30;;;;;;;;;;5021508;28;20362;-69
2022/11/14 07:01:59;;;;;;;5.40;1.33;;;;;;;;;;5021652;28;20143;-69
2022/11/14 07:04:43;;;;;;;4.95;1.60;;;;;;;;;;5038206;28;20084;-69
2022/11/14 07:07:29;;;;;;;6.47;1.65;;;;;;;;;;5019054;28;20066;-71
2022/11/14 07:10:13;;;;;;;6.05;1.40;;;;;;;;;;5018724;28;20083;-70
2022/11/14 07:12:57;;;;;;;5.82;1.90;;;;;;;;;;5031856;28;20526;-69
2022/11/14 07:15:48;;;;;;;9.05;1.30;;;;;;;;;;5035242;28;20036;-70
2022/11/14 07:18:32;;;;;;;;;;;;;;;;;;4993869;28;20091;-70
2022/11/14 07:21:16;;;;;;;5.15;1.50;;;;;;;;;;4994468;28;19921;-70
2022/11/14 07:24:01;;;;;;;4.40;1.60;;;;;;;;;;4995956;28;20076;-70
2022/11/14 07:26:45;;;;;;;3.15;1.50;;;;;;;;;;4996103;28;20061;-70
2022/11/14 07:29:29;;;;;;;8.55;1.42;;;;;;;;;;4995869;28;20038;-70
2022/11/14 07:32:14;;;;;;;7.00;1.55;;;;;;;;;;5005680;28;20045;-70
2022/11/14 07:34:57;;;;;;;3.15;1.52;;;;;;;;;;4982317;28;20045;-69
2022/11/14 07:37:41;;;;;;;13.32;2.25;;;;;;;;;;4982131;28;20136;-70
2022/11/14 07:40:26;;;;;;;8.55;2.05;;;;;;;;;;4981929;28;20487;-69
2022/11/14 07:43:10;;;;;;;13.60;1.60;;;;;;;;;;4983717;28;20030;-69
2022/11/14 07:46:14;;;;;;;5.85;2.03;;;;;;;;;;5001454;28;20040;-70
2022/11/14 07:48:58;;;;;;;5.18;1.30;;;;;;;;;;5001514;28;20041;-69
2022/11/14 07:51:42;;;;;;;6.65;1.40;;;;;;;;;;5001456;28;20037;-70
2022/11/14 07:54:26;;;;;;;2.53;1.33;;;;;;;;;;5001188;28;20364;-70
2022/11/14 07:57:10;;;;;;;4.80;1.42;;;;;;;;;;5001012;28;20103;-70
2022/11/14 07:59:54;;;;;;;7.45;1.70;;;;;;;;;;5001220;28;20032;-70
2022/11/14 08:02:39;;;;;;;3.80;1.40;;;;;;;;;;5017700;28;20073;-71
2022/11/14 08:05:23;;;;;;;9.85;1.60;;;;;;;;;;5000987;28;20124;-70
2022/11/14 08:08:07;;;;;;;6.85;1.90;;;;;;;;;;5014952;28;20045;-71
2022/11/14 08:10:54;;;;;;;12.32;1.92;;;;;;;;;;5000796;28;20041;-71
2022/11/14 08:13:38;;;;;;;10.75;1.58;;;;;;;;;;5000546;28;20132;-71
2022/11/14 08:16:23;;;;;;;10.18;1.50;;;;;;;;;;5000788;28;20044;-70
2022/11/14 08:19:07;;;;;;;7.53;1.50;;;;;;;;;;5001215;28;20487;-70
2022/11/14 08:21:51;;;;;;;8.90;1.50;;;;;;;;;;5000697;28;20569;-71
2022/11/14 08:24:35;;;;;;;5.75;1.40;;;;;;;;;;5001041;28;20040;-70
2022/11/14 08:27:19;;;;;;;11.68;2.28;;;;;;;;;;5000832;28;20040;-70
2022/11/14 08:30:04;;;;;;;5.88;1.60;;;;;;;;;;5014679;28;20037;-70
2022/11/14 08:32:48;;;;;;;3.72;1.58;;;;;;;;;;5000591;28;20099;-70
2022/11/14 08:35:33;;;;;;;9.80;1.60;;;;;;;;;;5000347;28;20472;-70
2022/11/14 08:38:17;;;;;;;8.65;1.35;;;;;;;;;;5000285;28;20093;-70
2022/11/14 08:41:02;;;;;;;5.22;1.52;;;;;;;;;;5000229;28;20057;-70
2022/11/14 08:43:46;;;;;;;8.68;1.80;;;;;;;;;;4999896;28;20047;-71
2022/11/14 08:46:30;;;;;;;9.20;2.00;;;;;;;;;;5000209;28;20084;-71
2022/11/14 08:49:15;;;;;;;6.80;1.60;;;;;;;;;;5000217;28;20073;-73
2022/11/14 08:51:59;;;;;;;11.32;1.90;;;;;;;;;;5000209;28;20037;-73
2022/11/14 08:54:43;;;;;;;5.07;1.70;;;;;;;;;;5000094;28;20037;-73
2022/11/14 08:57:29;;;;;;;6.90;1.83;;;;;;;;;;5024501;28;20183;-72
2022/11/14 09:00:13;;;;;;;8.82;2.50;;;;;;;;;;5019626;28;20041;-73
2022/11/14 09:02:57;;;;;;;10.05;2.15;;;;;;;;;;5019505;28;20414;-72
2022/11/14 09:05:41;;;;;;;14.60;2.10;;;;;;;;;;5033571;28;20055;-72
2022/11/14 09:08:26;;;;;;;9.80;1.70;;;;;;;;;;5036406;28;20456;-72
2022/11/14 09:11:18;;;;;;;7.35;3.78;;;;;;;;;;5032664;28;20045;-72
2022/11/14 09:14:03;;;;;;;6.57;1.77;;;;;;;;;;5019061;28;20025;-72
2022/11/14 09:16:47;;;;;;;7.57;2.00;;;;;;;;;;5019260;28;20090;-71
2022/11/14 09:19:31;;;;;;;4.57;1.60;;;;;;;;;;5019423;28;20407;-71
2022/11/14 09:22:15;;;;;;;8.23;1.83;;;;;;;;;;5033238;28;20412;-72
2022/11/14 09:24:59;;;;;;;6.22;1.70;;;;;;;;;;5035921;28;20048;-71
2022/11/14 09:27:43;;;;;;;10.82;1.95;;;;;;;;;;5019425;28;20041;-72
2022/11/14 09:30:27;;;;;;;13.02;1.83;;;;;;;;;;5019606;28;20127;-70
2022/11/14 09:33:12;;;;;;;8.35;1.63;;;;;;;;;;5019312;28;20042;-71
2022/11/14 09:35:57;;;;;;;7.00;1.88;;;;;;;;;;5018951;28;20108;-71
2022/11/14 09:38:43;;;;;;;10.35;1.63;;;;;;;;;;5019478;28;20106;-70
2022/11/14 09:41:36;;;;;;;6.18;1.80;;;;;;;;;;5035573;28;20045;-71
2022/11/14 09:44:20;;;;;;;5.82;1.85;;;;;;;;;;5018636;28;20070;-71
2022/11/14 09:47:08;;;;;;;11.48;2.15;;;;;;;;;;5036000;28;20033;-71
2022/11/14 09:49:54;;;;;;;7.75;2.20;;;;;;;;;;5018692;28;20098;-72
2022/11/14 09:52:46;;;;;;;8.30;1.70;;;;;;;;;;5035855;28;20051;-69
2022/11/14 09:55:32;;;;;;;7.13;1.85;;;;;;;;;;5019024;28;20040;-72
2022/11/14 09:58:18;;;;;;;8.20;2.25;;;;;;;;;;5018993;28;20040;-72
2022/11/14 10:01:05;;;;;;;11.52;2.05;;;;;;;;;;5018799;28;20075;-70
2022/11/14 10:04:12;;;;;;;8.82;2.20;;;;;;;;;;5018743;28;20033;-71
2022/11/14 10:07:08;;;;;;;13.05;2.30;;;;;;;;;;5022595;28;20095;-71
2022/11/14 10:09:58;;;;;;;8.45;1.65;;;;;;;;;;5038598;28;20033;-71
2022/11/14 10:12:50;;;;;;;12.32;2.35;;;;;;;;;;4982424;28;20187;-72
2022/11/14 10:15:34;;;;;;;9.35;2.00;;;;;;;;;;4982402;28;20034;-71
2022/11/14 10:18:37;;;;;;;6.22;2.03;;;;;;;;;;4982874;28;20042;-70
2022/11/14 10:21:28;;;;;;;9.10;2.20;;;;;;;;;;4981723;28;20045;-70
2022/11/14 10:24:12;;;;;;;9.07;2.00;;;;;;;;;;4998275;28;20038;-71
2022/11/14 10:26:59;;;;;;;9.90;2.03;;;;;;;;;;4982452;28;20077;-70
2022/11/14 10:29:46;;;;;;;5.30;1.73;;;;;;;;;;4983279;28;20046;-70
2022/11/14 10:32:40;;;;;;;11.50;1.95;;;;;;;;;;4982965;28;20464;-70
2022/11/14 10:35:28;;;;;;;8.15;1.80;;;;;;;;;;4996645;28;20463;-70
2022/11/14 10:38:31;;;;;;;12.13;1.98;;;;;;;;;;4996548;28;20118;-70
2022/11/14 10:41:16;;;;;;;6.53;1.77;;;;;;;;;;4983164;28;20056;-71
2022/11/14 10:44:01;;;;;;;11.25;1.92;;;;;;;;;;4983079;28;20034;-70
2022/11/14 10:46:47;;;;;;;17.30;2.65;;;;;;;;;;4996471;28;20030;-70
2022/11/14 10:49:35;;;;;;;12.88;2.22;;;;;;;;;;4982640;28;20476;-70
2022/11/14 10:52:21;;;;;;;11.63;2.15;;;;;;;;;;4999236;28;20033;-70
2022/11/14 10:55:12;;;;;;;7.53;1.80;;;;;;;;;;4982824;28;20156;-70
2022/11/14 10:57:56;;;;;;;11.60;2.25;;;;;;;;;;5026154;28;20029;-70
2022/11/14 11:00:40;;;;;;;10.45;2.15;;;;;;;;;;5021801;28;20051;-74
2022/11/14 11:03:39;;;;;;;7.93;2.15;;;;;;;;;;5021619;28;20182;-70
2022/11/14 11:06:24;;;;;;;9.70;1.98;;;;;;;;;;5021372;28;20040;-70
2022/11/14 11:12:17;;;;;;;17.38;2.28;;;;;;;;;;5034777;28;20044;-70
2022/11/14 11:15:30;;;;;;;7.50;2.13;;;;;;;;;;5021350;28;20036;-72
2022/11/14 11:18:31;;;;;;;14.13;2.97;;;;;;;;;;5021404;28;20052;-70
2022/11/14 11:21:16;;;;;;;8.77;2.40;;;;;;;;;;5021614;28;20501;-70
2022/11/14 11:24:00;;;;;;;14.27;2.75;;;;;;;;;;5021858;28;20526;-69
2022/11/14 11:26:44;;;;;;;8.27;2.00;;;;;;;;;;5021372;28;20044;-71
2022/11/14 11:29:31;;;;;;;6.15;2.10;;;;;;;;;;5021629;28;20040;-70
2022/11/14 11:32:25;;;;;;;11.55;2.50;;;;;;;;;;5021415;28;20041;-69
2022/11/14 11:35:13;;;;;;;3.38;1.50;;;;;;;;;;5021460;28;20045;-70
2022/11/14 11:38:01;;;;;;;5.40;2.00;;;;;;;;;;5021255;28;20130;-68
2022/11/14 11:40:47;;;;;;;7.78;1.70;;;;;;;;;;5021062;28;20056;-68
2022/11/14 11:43:37;;;;;;;6.10;2.17;;;;;;;;;;5021047;28;20068;-69
2022/11/14 11:46:25;;;;;;;6.97;2.00;;;;;;;;;;5020604;28;20097;-69
2022/11/14 11:49:14;;;;;;;15.00;1.95;;;;;;;;;;5035069;28;20041;-69
2022/11/14 11:52:02;;;;;;;8.57;1.90;;;;;;;;;;5020971;28;20043;-69
2022/11/14 11:54:55;;;;;;;15.27;1.80;;;;;;;;;;5020555;28;20033;-68
2022/11/14 11:57:45;;;;;;;9.70;2.30;;;;;;;;;;5020836;28;20045;-67
2022/11/14 12:00:30;;;;;;;10.65;1.80;;;;;;;;;;5020396;28;20467;-67
2022/11/14 12:03:14;;;;;;;11.80;1.95;;;;;;;;;;5037394;28;20467;-67
2022/11/14 12:05:59;;;;;;;8.35;1.73;;;;;;;;;;5020254;28;20394;-67
2022/11/14 12:09:01;;;;;;;6.68;1.70;;;;;;;;;;5018512;28;20044;-67
2022/11/14 12:11:49;;;;;;;7.90;1.75;;;;;;;;;;5017805;28;20037;-67
2022/11/14 12:14:39;;;;;;;10.18;2.35;;;;;;;;;;4979055;28;20136;-67
2022/11/14 12:17:27;;;;;;;6.15;1.80;;;;;;;;;;4979152;28;20480;-66
2022/11/14 12:20:17;;;;;;;6.60;1.95;;;;;;;;;;5010586;28;20041;-67
2022/11/14 12:23:13;;;;;;;8.15;2.42;;;;;;;;;;4983375;28;20081;-67
2022/11/14 12:26:05;;;;;;;7.63;2.30;;;;;;;;;;4980798;28;20029;-67
2022/11/14 12:28:57;;;;;;;8.07;2.63;;;;;;;;;;4980921;28;20264;-67
2022/11/14 12:31:42;;;;;;;6.60;1.88;;;;;;;;;;4981332;28;20128;-67
2022/11/14 12:34:47;;;;;;;5.38;1.90;;;;;;;;;;4980857;28;20034;-68
2022/11/14 12:37:35;;;;;;;9.52;2.15;;;;;;;;;;4997665;28;20144;-67
2022/11/14 12:40:19;;;;;;;5.63;1.83;;;;;;;;;;4981281;28;20069;-68
2022/11/14 12:43:05;;;;;;;4.53;1.58;;;;;;;;;;4981290;28;20042;-67
2022/11/14 12:45:49;;;;;;;2.88;1.50;;;;;;;;;;4980152;28;20038;-69
2022/11/14 12:48:35;;;;;;;4.75;1.58;;;;;;;;;;4981098;28;20045;-69
2022/11/14 12:51:25;;;;;;;9.50;2.38;;;;;;;;;;4994714;28;20042;-68
2022/11/14 12:54:28;;;;;;;3.67;1.70;;;;;;;;;;4981053;28;20033;-68
2022/11/14 12:57:46;;;;;;;6.57;2.05;;;;;;;;;;4999001;28;20041;-68
2022/11/14 13:00:22;;;;;;;8.48;2.53;;;;;;;;;;5033652;28;20128;-68
2022/11/14 13:03:15;;;;;;;7.50;2.20;;;;;;;;;;5020245;28;20056;-68
2022/11/14 13:06:18;;;;;;;4.82;1.60;;;;;;;;;;5019629;28;20453;-69
2022/11/14 13:09:05;;;;;;;6.43;1.70;;;;;;;;;;5019777;28;20045;-68
2022/11/14 13:24:21;;;;;;;6.87;1.47;;;;;;;;;;5033361;28;20033;-68
2022/11/14 13:27:26;;;;;;;6.90;1.40;;;;;;;;;;5019270;28;20390;-68
2022/11/14 13:30:11;;;;;;;4.33;1.50;;;;;;;;;;5019741;28;20437;-67
2022/11/14 13:32:55;;;;;;;8.10;2.27;;;;;;;;;;5019241;28;20052;-68
2022/11/14 13:35:41;;;;;;;8.17;2.33;;;;;;;;;;5019482;28;20049;-69
2022/11/14 13:38:43;;;;;;;18.17;2.30;;;;;;;;;;5019036;28;20056;-68
2022/11/14 13:41:37;;;;;;;4.70;1.50;;;;;;;;;;5018945;28;20033;-70
2022/11/14 13:44:37;;;;;;;6.50;1.47;;;;;;;;;;5019073;28;20463;-71
2022/11/14 13:47:40;;;;;;;14.40;1.87;;;;;;;;;;5032956;28;20037;-70
2022/11/14 13:50:30;;;;;;;3.90;1.30;;;;;;;;;;5019036;28;20446;-70
2022/11/14 13:53:23;;;;;;;8.43;1.60;;;;;;;;;;5019057;28;20136;-70
2022/11/14 13:56:13;;;;;;;5.63;1.63;;;;;;;;;;5019560;28;20128;-69
2022/11/14 13:59:13;;;;;;;5.07;1.77;;;;;;;;;;5019161;28;20463;-69
2022/11/14 14:02:09;;;;;;;9.23;1.50;;;;;;;;;;5019079;28;20102;-70
2022/11/14 14:05:12;;;;;;;5.13;1.80;;;;;;;;;;5033025;28;20124;-70
2022/11/14 14:08:12;;;;;;;7.17;1.97;;;;;;;;;;5018614;28;20132;-69
2022/11/14 14:11:14;;;;;;;5.47;1.53;;;;;;;;;;5018985;28;20052;-70
2022/11/14 14:14:05;;;;;;;4.43;1.33;;;;;;;;;;5018903;28;20383;-69
2022/11/14 14:16:57;;;;;;;8.48;1.50;;;;;;;;;;5019259;28;20391;-70
2022/11/14 14:19:47;;;;;;;11.20;1.53;;;;;;;;;;5019154;28;20454;-72
2022/11/14 14:22:46;;;;;;;7.23;1.60;;;;;;;;;;5018756;28;20309;-70
2022/11/14 14:25:43;;;;;;;2.80;1.40;;;;;;;;;;5019067;28;20041;-70
2022/11/14 14:28:30;;;;;;;8.63;1.93;;;;;;;;;;5018008;28;20383;-70
2022/11/14 14:31:18;;;;;;;7.10;2.10;;;;;;;;;;5018283;28;20037;-71
2022/11/14 14:34:19;;;;;;;6.17;2.23;;;;;;;;;;5018762;28;20422;-70
2022/11/14 14:37:03;;;;;;;7.87;2.27;;;;;;;;;;5018737;28;20060;-72
2022/11/14 14:39:56;;;;;;;6.43;1.70;;;;;;;;;;5018957;28;20083;-71
2022/11/14 14:42:44;;;;;;;3.70;2.27;;;;;;;;;;5019012;28;20044;-70
2022/11/14 14:45:29;;;;;;;8.70;1.83;;;;;;;;;;5018735;28;20483;-71
2022/11/14 14:48:20;;;;;;;6.53;1.80;;;;;;;;;;5018403;28;20036;-71
2022/11/14 14:51:06;;;;;;;6.67;1.70;;;;;;;;;;5036606;28;20049;-70
2022/11/14 14:53:52;;;;;;;9.20;2.43;;;;;;;;;;5021396;28;20355;-71
2022/11/14 14:56:36;;;;;;;11.07;1.77;;;;;;;;;;5035627;28;20044;-71
2022/11/14 14:59:22;;;;;;;7.10;2.17;;;;;;;;;;5020856;28;20052;-72
2022/11/14 15:02:15;;;;;;;14.23;2.50;;;;;;;;;;5021056;28;20102;-72
2022/11/14 15:04:59;;;;;;;8.97;2.10;;;;;;;;;;5020954;28;20387;-71
2022/11/14 15:07:45;;;;;;;7.90;2.07;;;;;;;;;;5021815;28;20041;-71
2022/11/14 15:10:30;;;;;;;7.67;2.60;;;;;;;;;;5021954;28;20135;-71
2022/11/14 15:13:15;;;;;;;10.83;1.90;;;;;;;;;;5038104;28;20041;-72
2022/11/14 15:15:59;;;;;;;11.00;1.70;;;;;;;;;;5022135;28;20395;-71
2022/11/14 15:18:43;;;;;;;11.83;2.67;;;;;;;;;;5021624;28;20475;-72
2022/11/14 15:21:28;;;;;;;13.17;2.93;;;;;;;;;;5021490;28;20041;-70
2022/11/14 15:24:13;;;;;;;12.03;2.00;;;;;;;;;;5021869;28;20032;-70
2022/11/14 15:27:02;;;;;;;4.73;2.10;;;;;;;;;;5003364;28;20030;-74
2022/11/14 15:29:52;;;;;;;5.97;1.57;;;;;;;;;;5003029;28;20056;-71
2022/11/14 15:32:37;;;;;;;;;;;;;;;;;;4989977;28;20021;-70
2022/11/14 15:35:21;;;;;;;3.97;1.40;;;;;;;;;;5011275;28;19913;-71
2022/11/14 15:38:17;;;;;;;10.57;2.13;;;;;;;;;;5016751;28;20523;-71
2022/11/14 15:41:08;;;;;;;10.97;1.60;;;;;;;;;;4991987;28;20045;-71
2022/11/14 15:43:53;;;;;;;11.27;1.77;;;;;;;;;;4989556;28;20132;-71
2022/11/14 15:46:48;;;;;;;11.03;2.00;;;;;;;;;;4991354;28;20882;-69
2022/11/14 15:49:32;;;;;;;2.87;1.60;;;;;;;;;;5001927;28;20029;-70
2022/11/14 15:52:19;;;;;;;3.13;1.50;;;;;;;;;;5014748;28;20037;-69
2022/11/14 15:55:08;;;;;;;5.73;1.57;;;;;;;;;;4991019;28;20033;-70
2022/11/14 15:57:53;;;;;;;7.73;1.60;;;;;;;;;;4989625;28;20033;-70
2022/11/14 16:00:45;;;;;;;8.43;1.70;;;;;;;;;;4991159;28;20037;-69
2022/11/14 16:03:29;;;;;;;6.47;1.30;;;;;;;;;;4987670;28;20034;-70
2022/11/14 16:06:13;;;;;;;7.23;1.73;;;;;;;;;;4989568;28;20368;-70
2022/11/14 16:08:57;;;;;;;4.63;1.47;;;;;;;;;;4988442;28;20030;-74
2022/11/14 16:11:42;;;;;;;4.33;1.60;;;;;;;;;;4986640;28;20040;-70
2022/11/14 16:14:26;;;;;;;12.33;2.00;;;;;;;;;;4988442;28;20372;-70
2022/11/14 16:17:14;;;;;;;9.13;1.70;;;;;;;;;;4988969;28;20323;-72
2022/11/14 16:20:03;;;;;;;6.37;1.60;;;;;;;;;;4994331;28;20061;-70
2022/11/14 16:22:48;;;;;;;5.90;1.80;;;;;;;;;;4990569;28;20038;-71
2022/11/14 16:25:33;;;;;;;7.13;2.00;;;;;;;;;;5004626;28;20040;-71
2022/11/14 16:28:17;;;;;;;7.80;1.30;;;;;;;;;;4988812;28;20133;-69
2022/11/14 16:31:01;;;;;;;4.93;1.40;;;;;;;;;;4992165;28;20136;-69
2022/11/14 16:33:46;;;;;;;6.80;2.03;;;;;;;;;;4996875;28;20033;-70
2022/11/14 16:36:30;;;;;;;5.60;1.43;;;;;;;;;;4991165;28;20547;-66
2022/11/14 16:39:15;;;;;;;8.43;1.20;;;;;;;;;;4993470;28;20034;-68
2022/11/14 16:42:00;;;;;;;5.17;1.70;;;;;;;;;;4993874;28;20046;-67
2022/11/14 16:44:46;;;;;;;2.63;1.10;;;;;;;;;;4994323;28;20491;-68
2022/11/14 16:47:31;;;;;;;4.30;1.40;;;;;;;;;;5009397;28;20042;-67
2022/11/14 16:50:16;;;;;;;4.63;1.40;;;;;;;;;;4988998;28;20427;-68
2022/11/14 16:53:00;;;;;;;3.13;1.40;;;;;;;;;;4989950;28;20456;-67